sensor_id;sensor_type;location;lat;lon;timestamp;temperature;humidity
64198;SHT31;50512;53.666;9.700;2022-10-24T00:00:15;14.74;97.30
64198;SHT31;50512;53.666;9.700;2022-10-24T00:02:42;14.83;97.19
64198;SHT31;50512;53.666;9.700;2022-10-24T00:05:09;14.86;96.88
64198;SHT31;50512;53.666;9.700;2022-10-24T00:07:35;14.86;96.97
64198;SHT31;50512;53.666;9.700;2022-10-24T00:10:01;14.81;97.06
64198;SHT31;50512;53.666;9.700;2022-10-24T00:12:26;14.77;97.22
64198;SHT31;50512;53.666;9.700;2022-10-24T00:14:52;14.76;97.20
64198;SHT31;50512;53.666;9.700;2022-10-24T00:17:17;14.79;97.16
64198;SHT31;50512;53.666;9.700;2022-10-24T00:19:44;14.76;97.22
64198;SHT31;50512;53.666;9.700;2022-10-24T00:22:09;14.77;97.14
64198;SHT31;50512;53.666;9.700;2022-10-24T00:24:35;14.79;96.80
64198;SHT31;50512;53.666;9.700;2022-10-24T00:27:00;14.77;96.90
64198;SHT31;50512;53.666;9.700;2022-10-24T00:29:26;14.77;96.89
64198;SHT31;50512;53.666;9.700;2022-10-24T00:31:51;14.76;96.64
64198;SHT31;50512;53.666;9.700;2022-10-24T00:34:17;14.73;96.64
64198;SHT31;50512;53.666;9.700;2022-10-24T00:36:44;14.76;96.54
64198;SHT31;50512;53.666;9.700;2022-10-24T00:39:10;14.76;96.40
64198;SHT31;50512;53.666;9.700;2022-10-24T00:41:37;14.76;96.32
64198;SHT31;50512;53.666;9.700;2022-10-24T00:44:14;14.76;96.11
64198;SHT31;50512;53.666;9.700;2022-10-24T00:46:41;14.84;95.72
64198;SHT31;50512;53.666;9.700;2022-10-24T00:49:11;14.86;95.77
64198;SHT31;50512;53.666;9.700;2022-10-24T00:51:38;14.87;95.42
64198;SHT31;50512;53.666;9.700;2022-10-24T00:54:08;14.86;95.30
64198;SHT31;50512;53.666;9.700;2022-10-24T00:56:35;14.84;95.35
64198;SHT31;50512;53.666;9.700;2022-10-24T00:59:03;14.90;94.94
64198;SHT31;50512;53.666;9.700;2022-10-24T01:01:29;14.86;94.77
64198;SHT31;50512;53.666;9.700;2022-10-24T01:03:54;14.86;94.71
64198;SHT31;50512;53.666;9.700;2022-10-24T01:06:36;14.83;94.68
64198;SHT31;50512;53.666;9.700;2022-10-24T01:09:15;14.76;94.86
64198;SHT31;50512;53.666;9.700;2022-10-24T01:11:53;14.74;94.88
64198;SHT31;50512;53.666;9.700;2022-10-24T01:14:28;14.69;94.89
64198;SHT31;50512;53.666;9.700;2022-10-24T01:17:05;14.65;95.18
64198;SHT31;50512;53.666;9.700;2022-10-24T01:19:56;14.60;95.24
64198;SHT31;50512;53.666;9.700;2022-10-24T01:22:30;14.60;95.36
64198;SHT31;50512;53.666;9.700;2022-10-24T01:25:06;14.55;95.43
64198;SHT31;50512;53.666;9.700;2022-10-24T01:27:46;14.53;95.50
64198;SHT31;50512;53.666;9.700;2022-10-24T01:30:19;14.55;95.48
64198;SHT31;50512;53.666;9.700;2022-10-24T01:32:48;14.55;95.46
64198;SHT31;50512;53.666;9.700;2022-10-24T01:35:24;14.49;95.51
64198;SHT31;50512;53.666;9.700;2022-10-24T01:37:54;14.48;95.53
64198;SHT31;50512;53.666;9.700;2022-10-24T01:40:26;14.46;95.63
64198;SHT31;50512;53.666;9.700;2022-10-24T01:42:56;14.46;95.78
64198;SHT31;50512;53.666;9.700;2022-10-24T01:45:27;14.42;95.80
64198;SHT31;50512;53.666;9.700;2022-10-24T01:47:57;14.33;95.86
64198;SHT31;50512;53.666;9.700;2022-10-24T01:50:25;14.33;96.02
64198;SHT31;50512;53.666;9.700;2022-10-24T01:52:52;14.33;96.14
64198;SHT31;50512;53.666;9.700;2022-10-24T01:55:19;14.29;96.31
64198;SHT31;50512;53.666;9.700;2022-10-24T01:57:45;14.31;96.33
64198;SHT31;50512;53.666;9.700;2022-10-24T02:00:15;14.33;96.29
64198;SHT31;50512;53.666;9.700;2022-10-24T02:02:45;14.36;96.34
64198;SHT31;50512;53.666;9.700;2022-10-24T02:05:15;14.38;96.15
64198;SHT31;50512;53.666;9.700;2022-10-24T02:07:45;14.39;96.17
64198;SHT31;50512;53.666;9.700;2022-10-24T02:10:14;14.38;96.13
64198;SHT31;50512;53.666;9.700;2022-10-24T02:12:46;14.38;96.03
64198;SHT31;50512;53.666;9.700;2022-10-24T02:15:17;14.32;96.18
64198;SHT31;50512;53.666;9.700;2022-10-24T02:17:47;14.28;96.22
64198;SHT31;50512;53.666;9.700;2022-10-24T02:20:12;14.22;96.42
64198;SHT31;50512;53.666;9.700;2022-10-24T02:22:43;14.21;96.45
64198;SHT31;50512;53.666;9.700;2022-10-24T02:25:12;14.17;96.50
64198;SHT31;50512;53.666;9.700;2022-10-24T02:27:41;14.18;96.59
64198;SHT31;50512;53.666;9.700;2022-10-24T02:30:11;14.15;96.56
64198;SHT31;50512;53.666;9.700;2022-10-24T02:32:40;14.14;96.57
64198;SHT31;50512;53.666;9.700;2022-10-24T02:35:10;14.11;96.44
64198;SHT31;50512;53.666;9.700;2022-10-24T02:37:38;14.07;96.52
64198;SHT31;50512;53.666;9.700;2022-10-24T02:40:07;14.00;96.63
64198;SHT31;50512;53.666;9.700;2022-10-24T02:42:34;13.95;96.93
64198;SHT31;50512;53.666;9.700;2022-10-24T02:45:01;13.90;97.14
64198;SHT31;50512;53.666;9.700;2022-10-24T02:47:27;13.95;97.06
64198;SHT31;50512;53.666;9.700;2022-10-24T02:49:54;13.97;97.00
64198;SHT31;50512;53.666;9.700;2022-10-24T02:52:21;13.94;97.14
64198;SHT31;50512;53.666;9.700;2022-10-24T02:54:47;13.97;97.12
64198;SHT31;50512;53.666;9.700;2022-10-24T02:57:12;13.95;97.08
64198;SHT31;50512;53.666;9.700;2022-10-24T02:59:38;13.97;97.13
64198;SHT31;50512;53.666;9.700;2022-10-24T03:02:03;13.91;97.06
64198;SHT31;50512;53.666;9.700;2022-10-24T03:04:29;13.97;97.00
64198;SHT31;50512;53.666;9.700;2022-10-24T03:06:54;13.93;96.93
64198;SHT31;50512;53.666;9.700;2022-10-24T03:09:21;13.88;96.92
64198;SHT31;50512;53.666;9.700;2022-10-24T03:11:46;13.88;96.96
64198;SHT31;50512;53.666;9.700;2022-10-24T03:14:12;13.87;97.19
64198;SHT31;50512;53.666;9.700;2022-10-24T03:16:37;13.87;97.18
64198;SHT31;50512;53.666;9.700;2022-10-24T03:19:03;13.87;97.05
64198;SHT31;50512;53.666;9.700;2022-10-24T03:21:28;13.78;97.09
64198;SHT31;50512;53.666;9.700;2022-10-24T03:23:54;13.85;97.32
64198;SHT31;50512;53.666;9.700;2022-10-24T03:26:21;13.81;97.19
64198;SHT31;50512;53.666;9.700;2022-10-24T03:28:46;13.81;97.26
64198;SHT31;50512;53.666;9.700;2022-10-24T03:31:12;13.78;97.22
64198;SHT31;50512;53.666;9.700;2022-10-24T03:33:37;13.77;97.27
64198;SHT31;50512;53.666;9.700;2022-10-24T03:36:03;13.78;97.40
64198;SHT31;50512;53.666;9.700;2022-10-24T03:38:29;13.80;97.31
64198;SHT31;50512;53.666;9.700;2022-10-24T03:40:54;13.76;97.38
64198;SHT31;50512;53.666;9.700;2022-10-24T03:43:21;13.76;97.43
64198;SHT31;50512;53.666;9.700;2022-10-24T03:45:47;13.73;97.26
64198;SHT31;50512;53.666;9.700;2022-10-24T03:48:12;13.73;97.43
64198;SHT31;50512;53.666;9.700;2022-10-24T03:50:38;13.77;97.49
64198;SHT31;50512;53.666;9.700;2022-10-24T03:53:04;13.71;97.43
64198;SHT31;50512;53.666;9.700;2022-10-24T03:55:30;13.77;97.33
64198;SHT31;50512;53.666;9.700;2022-10-24T03:57:55;13.74;97.32
64198;SHT31;50512;53.666;9.700;2022-10-24T04:00:22;13.76;97.31
64198;SHT31;50512;53.666;9.700;2022-10-24T04:02:48;13.84;97.22
64198;SHT31;50512;53.666;9.700;2022-10-24T04:05:13;13.88;96.98
64198;SHT31;50512;53.666;9.700;2022-10-24T04:07:39;13.87;96.93
64198;SHT31;50512;53.666;9.700;2022-10-24T04:10:05;13.90;96.91
64198;SHT31;50512;53.666;9.700;2022-10-24T04:12:31;13.90;96.71
64198;SHT31;50512;53.666;9.700;2022-10-24T04:14:56;13.88;96.62
64198;SHT31;50512;53.666;9.700;2022-10-24T04:17:23;13.91;96.67
64198;SHT31;50512;53.666;9.700;2022-10-24T04:19:49;13.87;96.58
64198;SHT31;50512;53.666;9.700;2022-10-24T04:22:14;13.87;96.71
64198;SHT31;50512;53.666;9.700;2022-10-24T04:24:40;13.85;96.65
64198;SHT31;50512;53.666;9.700;2022-10-24T04:27:05;13.80;96.60
64198;SHT31;50512;53.666;9.700;2022-10-24T04:29:31;13.83;96.65
64198;SHT31;50512;53.666;9.700;2022-10-24T04:31:57;13.81;96.62
64198;SHT31;50512;53.666;9.700;2022-10-24T04:34:24;13.80;96.58
64198;SHT31;50512;53.666;9.700;2022-10-24T04:36:49;13.77;96.73
64198;SHT31;50512;53.666;9.700;2022-10-24T04:39:14;13.73;96.81
64198;SHT31;50512;53.666;9.700;2022-10-24T04:41:40;13.77;96.79
64198;SHT31;50512;53.666;9.700;2022-10-24T04:44:05;13.77;96.84
64198;SHT31;50512;53.666;9.700;2022-10-24T04:46:31;13.77;96.57
64198;SHT31;50512;53.666;9.700;2022-10-24T04:48:57;13.80;96.64
64198;SHT31;50512;53.666;9.700;2022-10-24T04:51:24;13.77;96.70
64198;SHT31;50512;53.666;9.700;2022-10-24T04:53:50;13.84;96.40
64198;SHT31;50512;53.666;9.700;2022-10-24T04:56:15;13.84;96.17
64198;SHT31;50512;53.666;9.700;2022-10-24T04:58:41;13.83;96.07
64198;SHT31;50512;53.666;9.700;2022-10-24T05:01:06;13.84;96.10
64198;SHT31;50512;53.666;9.700;2022-10-24T05:03:32;13.87;96.06
64198;SHT31;50512;53.666;9.700;2022-10-24T05:05:57;13.85;95.75
64198;SHT31;50512;53.666;9.700;2022-10-24T05:08:24;13.90;95.81
64198;SHT31;50512;53.666;9.700;2022-10-24T05:10:50;13.91;95.68
64198;SHT31;50512;53.666;9.700;2022-10-24T05:13:15;13.88;95.57
64198;SHT31;50512;53.666;9.700;2022-10-24T05:15:41;13.87;95.58
64198;SHT31;50512;53.666;9.700;2022-10-24T05:18:07;13.90;95.59
64198;SHT31;50512;53.666;9.700;2022-10-24T05:20:32;13.94;95.27
64198;SHT31;50512;53.666;9.700;2022-10-24T05:22:58;13.97;95.07
64198;SHT31;50512;53.666;9.700;2022-10-24T05:25:25;13.94;94.99
64198;SHT31;50512;53.666;9.700;2022-10-24T05:27:50;14.00;94.80
64198;SHT31;50512;53.666;9.700;2022-10-24T05:30:16;13.98;94.58
64198;SHT31;50512;53.666;9.700;2022-10-24T05:32:42;13.94;94.59
64198;SHT31;50512;53.666;9.700;2022-10-24T05:35:08;13.95;94.67
64198;SHT31;50512;53.666;9.700;2022-10-24T05:37:33;13.95;94.64
64198;SHT31;50512;53.666;9.700;2022-10-24T05:39:59;13.94;94.57
64198;SHT31;50512;53.666;9.700;2022-10-24T05:42:25;13.91;94.57
64198;SHT31;50512;53.666;9.700;2022-10-24T05:44:51;13.91;94.28
64198;SHT31;50512;53.666;9.700;2022-10-24T05:47:16;13.93;94.48
64198;SHT31;50512;53.666;9.700;2022-10-24T05:49:42;13.95;94.19
64198;SHT31;50512;53.666;9.700;2022-10-24T05:52:07;13.91;94.13
64198;SHT31;50512;53.666;9.700;2022-10-24T05:54:33;13.95;94.06
64198;SHT31;50512;53.666;9.700;2022-10-24T05:56:58;13.91;94.14
64198;SHT31;50512;53.666;9.700;2022-10-24T05:59:25;13.95;93.92
64198;SHT31;50512;53.666;9.700;2022-10-24T06:01:51;13.93;93.75
64198;SHT31;50512;53.666;9.700;2022-10-24T06:04:16;13.95;93.66
64198;SHT31;50512;53.666;9.700;2022-10-24T06:06:43;13.93;93.50
64198;SHT31;50512;53.666;9.700;2022-10-24T06:09:09;13.94;93.33
64198;SHT31;50512;53.666;9.700;2022-10-24T06:11:35;13.98;93.22
64198;SHT31;50512;53.666;9.700;2022-10-24T06:14:00;14.02;93.09
64198;SHT31;50512;53.666;9.700;2022-10-24T06:16:27;14.05;92.93
64198;SHT31;50512;53.666;9.700;2022-10-24T06:18:53;14.00;92.71
64198;SHT31;50512;53.666;9.700;2022-10-24T06:21:18;14.07;92.81
64198;SHT31;50512;53.666;9.700;2022-10-24T06:23:44;14.08;92.68
64198;SHT31;50512;53.666;9.700;2022-10-24T06:26:10;14.10;92.69
64198;SHT31;50512;53.666;9.700;2022-10-24T06:28:36;14.10;92.74
64198;SHT31;50512;53.666;9.700;2022-10-24T06:31:02;14.11;92.64
64198;SHT31;50512;53.666;9.700;2022-10-24T06:33:30;14.08;92.70
64198;SHT31;50512;53.666;9.700;2022-10-24T06:35:58;14.00;93.01
64198;SHT31;50512;53.666;9.700;2022-10-24T06:38:23;14.01;92.93
64198;SHT31;50512;53.666;9.700;2022-10-24T06:40:49;14.07;92.79
64198;SHT31;50512;53.666;9.700;2022-10-24T06:43:14;14.05;92.79
64198;SHT31;50512;53.666;9.700;2022-10-24T06:45:40;14.04;92.91
64198;SHT31;50512;53.666;9.700;2022-10-24T06:48:05;14.07;92.93
64198;SHT31;50512;53.666;9.700;2022-10-24T06:50:32;14.08;92.96
64198;SHT31;50512;53.666;9.700;2022-10-24T06:52:58;14.07;92.83
64198;SHT31;50512;53.666;9.700;2022-10-24T06:55:23;14.11;92.94
64198;SHT31;50512;53.666;9.700;2022-10-24T06:57:48;14.14;92.74
64198;SHT31;50512;53.666;9.700;2022-10-24T07:00:14;14.17;92.60
64198;SHT31;50512;53.666;9.700;2022-10-24T07:02:40;14.22;92.65
64198;SHT31;50512;53.666;9.700;2022-10-24T07:05:06;14.25;92.40
64198;SHT31;50512;53.666;9.700;2022-10-24T07:07:33;14.28;92.39
64198;SHT31;50512;53.666;9.700;2022-10-24T07:09:58;14.28;92.15
64198;SHT31;50512;53.666;9.700;2022-10-24T07:12:24;14.38;91.90
64198;SHT31;50512;53.666;9.700;2022-10-24T07:14:50;14.43;91.61
64198;SHT31;50512;53.666;9.700;2022-10-24T07:17:16;14.52;91.51
64198;SHT31;50512;53.666;9.700;2022-10-24T07:19:41;14.59;91.09
64198;SHT31;50512;53.666;9.700;2022-10-24T07:22:07;14.77;90.39
64198;SHT31;50512;53.666;9.700;2022-10-24T07:24:34;14.88;89.85
64198;SHT31;50512;53.666;9.700;2022-10-24T07:27:00;15.00;89.84
64198;SHT31;50512;53.666;9.700;2022-10-24T07:29:25;15.11;88.87
64198;SHT31;50512;53.666;9.700;2022-10-24T07:31:51;15.32;88.33
64198;SHT31;50512;53.666;9.700;2022-10-24T07:34:17;15.66;86.81
64198;SHT31;50512;53.666;9.700;2022-10-24T07:36:42;16.13;85.51
64198;SHT31;50512;53.666;9.700;2022-10-24T07:39:08;16.56;83.44
64198;SHT31;50512;53.666;9.700;2022-10-24T07:41:37;16.65;83.06
64198;SHT31;50512;53.666;9.700;2022-10-24T07:44:02;17.08;81.77
64198;SHT31;50512;53.666;9.700;2022-10-24T07:46:28;17.08;81.34
64198;SHT31;50512;53.666;9.700;2022-10-24T07:48:54;17.11;81.05
64198;SHT31;50512;53.666;9.700;2022-10-24T07:51:20;17.23;80.69
64198;SHT31;50512;53.666;9.700;2022-10-24T07:53:46;17.35;79.96
64198;SHT31;50512;53.666;9.700;2022-10-24T07:56:13;17.31;80.18
64198;SHT31;50512;53.666;9.700;2022-10-24T07:58:41;17.23;80.86
64198;SHT31;50512;53.666;9.700;2022-10-24T08:01:10;17.56;79.49
64198;SHT31;50512;53.666;9.700;2022-10-24T08:03:36;17.89;77.77
64198;SHT31;50512;53.666;9.700;2022-10-24T08:06:03;18.14;77.83
64198;SHT31;50512;53.666;9.700;2022-10-24T08:08:29;18.08;78.01
64198;SHT31;50512;53.666;9.700;2022-10-24T08:10:54;18.49;76.34
64198;SHT31;50512;53.666;9.700;2022-10-24T08:13:20;18.61;75.94
64198;SHT31;50512;53.666;9.700;2022-10-24T08:15:47;18.68;76.21
64198;SHT31;50512;53.666;9.700;2022-10-24T08:18:12;18.87;75.41
64198;SHT31;50512;53.666;9.700;2022-10-24T08:20:38;18.49;76.64
64198;SHT31;50512;53.666;9.700;2022-10-24T08:23:03;18.49;76.59
64198;SHT31;50512;53.666;9.700;2022-10-24T08:25:28;18.63;75.89
64198;SHT31;50512;53.666;9.700;2022-10-24T08:27:54;18.32;77.53
64198;SHT31;50512;53.666;9.700;2022-10-24T08:30:19;17.77;78.83
64198;SHT31;50512;53.666;9.700;2022-10-24T08:32:46;18.08;78.59
64198;SHT31;50512;53.666;9.700;2022-10-24T08:35:15;17.75;78.68
64198;SHT31;50512;53.666;9.700;2022-10-24T08:37:40;17.45;80.24
64198;SHT31;50512;53.666;9.700;2022-10-24T08:40:07;17.62;80.02
64198;SHT31;50512;53.666;9.700;2022-10-24T08:42:33;17.42;80.51
64198;SHT31;50512;53.666;9.700;2022-10-24T08:44:59;17.08;81.74
64198;SHT31;50512;53.666;9.700;2022-10-24T08:47:28;16.90;82.50
64198;SHT31;50512;53.666;9.700;2022-10-24T08:50:03;17.03;82.75
64198;SHT31;50512;53.666;9.700;2022-10-24T08:52:30;17.28;81.44
64198;SHT31;50512;53.666;9.700;2022-10-24T08:54:58;17.27;81.47
64198;SHT31;50512;53.666;9.700;2022-10-24T08:57:27;17.42;80.83
64198;SHT31;50512;53.666;9.700;2022-10-24T08:59:57;17.62;80.52
64198;SHT31;50512;53.666;9.700;2022-10-24T09:02:25;18.30;78.40
64198;SHT31;50512;53.666;9.700;2022-10-24T09:04:55;18.62;77.00
64198;SHT31;50512;53.666;9.700;2022-10-24T09:07:23;19.06;75.75
64198;SHT31;50512;53.666;9.700;2022-10-24T09:09:50;19.62;73.95
64198;SHT31;50512;53.666;9.700;2022-10-24T09:12:17;19.63;72.91
64198;SHT31;50512;53.666;9.700;2022-10-24T09:14:44;19.35;72.58
64198;SHT31;50512;53.666;9.700;2022-10-24T09:17:15;19.48;73.29
64198;SHT31;50512;53.666;9.700;2022-10-24T09:19:48;19.73;72.25
64198;SHT31;50512;53.666;9.700;2022-10-24T09:22:14;19.48;72.38
64198;SHT31;50512;53.666;9.700;2022-10-24T09:24:44;19.50;73.14
64198;SHT31;50512;53.666;9.700;2022-10-24T09:27:15;19.69;72.64
64198;SHT31;50512;53.666;9.700;2022-10-24T09:29:42;19.10;73.83
64198;SHT31;50512;53.666;9.700;2022-10-24T09:32:15;19.14;73.53
64198;SHT31;50512;53.666;9.700;2022-10-24T09:34:41;18.47;75.79
64198;SHT31;50512;53.666;9.700;2022-10-24T09:37:06;18.63;76.21
64198;SHT31;50512;53.666;9.700;2022-10-24T09:39:33;18.55;76.25
64198;SHT31;50512;53.666;9.700;2022-10-24T09:42:00;18.48;77.62
64198;SHT31;50512;53.666;9.700;2022-10-24T09:44:32;18.41;77.48
64198;SHT31;50512;53.666;9.700;2022-10-24T09:46:59;18.37;77.17
64198;SHT31;50512;53.666;9.700;2022-10-24T09:49:31;18.24;76.73
64198;SHT31;50512;53.666;9.700;2022-10-24T09:52:04;18.28;77.29
64198;SHT31;50512;53.666;9.700;2022-10-24T09:54:32;18.31;77.30
64198;SHT31;50512;53.666;9.700;2022-10-24T09:57:03;18.47;76.76
64198;SHT31;50512;53.666;9.700;2022-10-24T09:59:39;18.53;76.24
64198;SHT31;50512;53.666;9.700;2022-10-24T10:02:23;18.58;76.79
64198;SHT31;50512;53.666;9.700;2022-10-24T10:05:18;18.70;76.90
64198;SHT31;50512;53.666;9.700;2022-10-24T10:07:45;18.73;76.32
64198;SHT31;50512;53.666;9.700;2022-10-24T10:10:23;18.76;74.85
64198;SHT31;50512;53.666;9.700;2022-10-24T10:12:58;18.86;75.08
64198;SHT31;50512;53.666;9.700;2022-10-24T10:15:27;18.68;74.41
64198;SHT31;50512;53.666;9.700;2022-10-24T10:17:56;18.69;74.46
64198;SHT31;50512;53.666;9.700;2022-10-24T10:20:24;18.80;75.37
64198;SHT31;50512;53.666;9.700;2022-10-24T10:22:50;18.90;74.23
64198;SHT31;50512;53.666;9.700;2022-10-24T10:25:28;18.96;75.12
64198;SHT31;50512;53.666;9.700;2022-10-24T10:27:55;19.00;73.18
64198;SHT31;50512;53.666;9.700;2022-10-24T10:30:21;19.08;73.35
64198;SHT31;50512;53.666;9.700;2022-10-24T10:33:03;19.13;73.29
64198;SHT31;50512;53.666;9.700;2022-10-24T10:35:36;19.11;73.67
64198;SHT31;50512;53.666;9.700;2022-10-24T10:38:16;18.92;74.04
64198;SHT31;50512;53.666;9.700;2022-10-24T10:40:45;18.72;73.21
64198;SHT31;50512;53.666;9.700;2022-10-24T10:43:21;18.68;73.46
64198;SHT31;50512;53.666;9.700;2022-10-24T10:45:55;18.68;73.14
64198;SHT31;50512;53.666;9.700;2022-10-24T10:48:36;18.75;72.90
64198;SHT31;50512;53.666;9.700;2022-10-24T10:51:10;18.69;72.88
64198;SHT31;50512;53.666;9.700;2022-10-24T10:53:45;18.72;71.95
64198;SHT31;50512;53.666;9.700;2022-10-24T10:56:20;18.72;73.43
64198;SHT31;50512;53.666;9.700;2022-10-24T10:58:57;18.69;72.05
64198;SHT31;50512;53.666;9.700;2022-10-24T11:01:32;18.69;72.54
64198;SHT31;50512;53.666;9.700;2022-10-24T11:04:07;18.65;72.28
64198;SHT31;50512;53.666;9.700;2022-10-24T11:06:44;18.55;73.43
64198;SHT31;50512;53.666;9.700;2022-10-24T11:09:20;18.45;73.64
64198;SHT31;50512;53.666;9.700;2022-10-24T11:11:51;18.41;74.41
64198;SHT31;50512;53.666;9.700;2022-10-24T11:14:27;18.27;74.38
64198;SHT31;50512;53.666;9.700;2022-10-24T11:16:56;18.24;73.64
64198;SHT31;50512;53.666;9.700;2022-10-24T11:19:26;18.20;74.17
64198;SHT31;50512;53.666;9.700;2022-10-24T11:21:54;18.28;74.26
64198;SHT31;50512;53.666;9.700;2022-10-24T11:24:22;18.40;74.67
64198;SHT31;50512;53.666;9.700;2022-10-24T11:26:52;18.49;74.14
64198;SHT31;50512;53.666;9.700;2022-10-24T11:29:26;18.68;72.97
64198;SHT31;50512;53.666;9.700;2022-10-24T11:31:56;18.75;71.62
64198;SHT31;50512;53.666;9.700;2022-10-24T11:34:28;18.76;71.37
64198;SHT31;50512;53.666;9.700;2022-10-24T11:36:59;18.72;69.74
64198;SHT31;50512;53.666;9.700;2022-10-24T11:39:28;18.73;70.56
64198;SHT31;50512;53.666;9.700;2022-10-24T11:41:58;18.73;71.33
64198;SHT31;50512;53.666;9.700;2022-10-24T11:44:35;18.63;70.68
64198;SHT31;50512;53.666;9.700;2022-10-24T11:47:13;18.49;71.41
64198;SHT31;50512;53.666;9.700;2022-10-24T11:49:43;18.41;71.89
64198;SHT31;50512;53.666;9.700;2022-10-24T11:52:15;18.40;71.63
64198;SHT31;50512;53.666;9.700;2022-10-24T11:54:47;18.37;72.64
64198;SHT31;50512;53.666;9.700;2022-10-24T11:57:18;18.37;71.82
64198;SHT31;50512;53.666;9.700;2022-10-24T11:59:50;18.40;71.99
64198;SHT31;50512;53.666;9.700;2022-10-24T12:02:45;18.47;71.92
64198;SHT31;50512;53.666;9.700;2022-10-24T12:05:22;18.45;71.60
64198;SHT31;50512;53.666;9.700;2022-10-24T12:08:10;18.48;72.49
64198;SHT31;50512;53.666;9.700;2022-10-24T12:10:54;18.48;71.94
64198;SHT31;50512;53.666;9.700;2022-10-24T12:13:35;18.61;72.47
64198;SHT31;50512;53.666;9.700;2022-10-24T12:16:13;18.62;71.12
64198;SHT31;50512;53.666;9.700;2022-10-24T12:18:44;18.62;71.34
64198;SHT31;50512;53.666;9.700;2022-10-24T12:21:12;18.58;71.76
64198;SHT31;50512;53.666;9.700;2022-10-24T12:23:39;18.49;71.66
64198;SHT31;50512;53.666;9.700;2022-10-24T12:26:07;18.45;72.11
64198;SHT31;50512;53.666;9.700;2022-10-24T12:28:33;18.41;72.45
64198;SHT31;50512;53.666;9.700;2022-10-24T12:31:18;18.42;73.03
64198;SHT31;50512;53.666;9.700;2022-10-24T12:33:45;18.34;73.58
64198;SHT31;50512;53.666;9.700;2022-10-24T12:36:12;18.20;73.48
64198;SHT31;50512;53.666;9.700;2022-10-24T12:39:04;18.11;73.56
64198;SHT31;50512;53.666;9.700;2022-10-24T12:41:42;17.94;74.96
64198;SHT31;50512;53.666;9.700;2022-10-24T12:44:36;17.77;79.37
64198;SHT31;50512;53.666;9.700;2022-10-24T12:50:52;17.24;84.78
64198;SHT31;50512;53.666;9.700;2022-10-24T12:53:35;16.93;86.21
64198;SHT31;50512;53.666;9.700;2022-10-24T12:56:11;16.69;87.21
64198;SHT31;50512;53.666;9.700;2022-10-24T12:58:36;16.45;87.90
64198;SHT31;50512;53.666;9.700;2022-10-24T13:01:04;16.49;89.41
64198;SHT31;50512;53.666;9.700;2022-10-24T13:03:46;16.45;89.96
64198;SHT31;50512;53.666;9.700;2022-10-24T13:06:20;16.52;89.42
64198;SHT31;50512;53.666;9.700;2022-10-24T13:09:05;16.59;89.24
64198;SHT31;50512;53.666;9.700;2022-10-24T13:11:43;16.59;87.92
64198;SHT31;50512;53.666;9.700;2022-10-24T13:14:41;16.63;89.52
64198;SHT31;50512;53.666;9.700;2022-10-24T13:17:12;16.59;88.50
64198;SHT31;50512;53.666;9.700;2022-10-24T13:19:41;16.58;86.68
64198;SHT31;50512;53.666;9.700;2022-10-24T13:22:25;16.55;86.32
64198;SHT31;50512;53.666;9.700;2022-10-24T13:24:51;16.62;83.91
64198;SHT31;50512;53.666;9.700;2022-10-24T13:27:26;16.53;84.91
64198;SHT31;50512;53.666;9.700;2022-10-24T13:30:00;16.53;84.62
64198;SHT31;50512;53.666;9.700;2022-10-24T13:32:30;16.49;85.29
64198;SHT31;50512;53.666;9.700;2022-10-24T13:34:58;16.42;84.89
64198;SHT31;50512;53.666;9.700;2022-10-24T13:37:26;16.35;85.52
64198;SHT31;50512;53.666;9.700;2022-10-24T13:39:54;16.22;87.80
64198;SHT31;50512;53.666;9.700;2022-10-24T13:42:28;16.05;87.02
64198;SHT31;50512;53.666;9.700;2022-10-24T13:44:59;16.01;88.95
64198;SHT31;50512;53.666;9.700;2022-10-24T13:47:30;15.93;88.97
64198;SHT31;50512;53.666;9.700;2022-10-24T13:50:03;15.89;89.32
64198;SHT31;50512;53.666;9.700;2022-10-24T13:52:35;15.73;90.54
64198;SHT31;50512;53.666;9.700;2022-10-24T13:55:17;15.60;91.50
64198;SHT31;50512;53.666;9.700;2022-10-24T13:57:53;15.59;92.50
64198;SHT31;50512;53.666;9.700;2022-10-24T14:00:20;15.50;91.82
64198;SHT31;50512;53.666;9.700;2022-10-24T14:02:46;15.40;92.37
64198;SHT31;50512;53.666;9.700;2022-10-24T14:05:25;15.35;92.88
64198;SHT31;50512;53.666;9.700;2022-10-24T14:07:52;15.27;93.67
64198;SHT31;50512;53.666;9.700;2022-10-24T14:10:19;15.25;93.66
64198;SHT31;50512;53.666;9.700;2022-10-24T14:12:45;15.32;94.31
64198;SHT31;50512;53.666;9.700;2022-10-24T14:15:17;15.42;94.11
64198;SHT31;50512;53.666;9.700;2022-10-24T14:17:53;15.48;93.54
64198;SHT31;50512;53.666;9.700;2022-10-24T14:20:23;15.55;93.09
64198;SHT31;50512;53.666;9.700;2022-10-24T14:22:49;15.56;92.48
64198;SHT31;50512;53.666;9.700;2022-10-24T14:25:22;15.50;92.55
64198;SHT31;50512;53.666;9.700;2022-10-24T14:27:48;15.45;92.29
64198;SHT31;50512;53.666;9.700;2022-10-24T14:30:17;15.48;91.97
64198;SHT31;50512;53.666;9.700;2022-10-24T14:32:43;15.56;90.52
64198;SHT31;50512;53.666;9.700;2022-10-24T14:35:11;15.70;90.33
64198;SHT31;50512;53.666;9.700;2022-10-24T14:37:39;15.94;87.62
64198;SHT31;50512;53.666;9.700;2022-10-24T14:40:13;16.07;86.54
64198;SHT31;50512;53.666;9.700;2022-10-24T14:42:39;16.13;87.36
64198;SHT31;50512;53.666;9.700;2022-10-24T14:45:19;16.14;86.91
64198;SHT31;50512;53.666;9.700;2022-10-24T14:47:49;16.08;86.70
64198;SHT31;50512;53.666;9.700;2022-10-24T14:50:33;16.07;86.01
64198;SHT31;50512;53.666;9.700;2022-10-24T14:53:01;16.01;84.95
64198;SHT31;50512;53.666;9.700;2022-10-24T14:55:26;16.01;86.21
64198;SHT31;50512;53.666;9.700;2022-10-24T14:57:52;15.97;85.85
64198;SHT31;50512;53.666;9.700;2022-10-24T15:00:20;15.90;85.71
64198;SHT31;50512;53.666;9.700;2022-10-24T15:02:47;15.86;84.49
64198;SHT31;50512;53.666;9.700;2022-10-24T15:05:29;15.82;85.31
64198;SHT31;50512;53.666;9.700;2022-10-24T15:07:59;15.79;84.44
64198;SHT31;50512;53.666;9.700;2022-10-24T15:10:36;15.77;85.57
64198;SHT31;50512;53.666;9.700;2022-10-24T15:13:09;15.73;84.87
64198;SHT31;50512;53.666;9.700;2022-10-24T15:15:46;15.73;85.09
64198;SHT31;50512;53.666;9.700;2022-10-24T15:18:19;15.79;84.66
64198;SHT31;50512;53.666;9.700;2022-10-24T15:20:46;15.82;83.34
64198;SHT31;50512;53.666;9.700;2022-10-24T15:23:19;15.80;83.87
64198;SHT31;50512;53.666;9.700;2022-10-24T15:26:02;15.76;84.24
64198;SHT31;50512;53.666;9.700;2022-10-24T15:28:45;15.79;84.31
64198;SHT31;50512;53.666;9.700;2022-10-24T15:31:12;15.73;84.28
64198;SHT31;50512;53.666;9.700;2022-10-24T15:33:38;15.74;83.27
64198;SHT31;50512;53.666;9.700;2022-10-24T15:36:04;15.71;83.11
64198;SHT31;50512;53.666;9.700;2022-10-24T15:38:30;15.74;82.99
64198;SHT31;50512;53.666;9.700;2022-10-24T15:40:57;15.77;81.93
64198;SHT31;50512;53.666;9.700;2022-10-24T15:43:22;15.80;82.69
64198;SHT31;50512;53.666;9.700;2022-10-24T15:45:48;15.74;83.08